sensor_id;sensor_type;location;lat;lon;timestamp;P1;durP1;ratioP1;P2;durP2;ratioP2
78027;SDS011;67235;45.638;11.714;2023-08-06T00:00:54;6.20;;;2.70;;
78027;SDS011;67235;45.638;11.714;2023-08-06T00:04:16;4.90;;;2.85;;
78027;SDS011;67235;45.638;11.714;2023-08-06T00:06:49;7.25;;;2.97;;
78027;SDS011;67235;45.638;11.714;2023-08-06T00:09:30;6.93;;;3.47;;
78027;SDS011;67235;45.638;11.714;2023-08-06T00:12:27;6.25;;;2.75;;
78027;SDS011;67235;45.638;11.714;2023-08-06T00:15:07;7.18;;;2.92;;
78027;SDS011;67235;45.638;11.714;2023-08-06T00:17:36;7.25;;;3.17;;
78027;SDS011;67235;45.638;11.714;2023-08-06T00:22:49;6.00;;;2.85;;
78027;SDS011;67235;45.638;11.714;2023-08-06T00:25:46;5.50;;;3.00;;
78027;SDS011;67235;45.638;11.714;2023-08-06T00:28:36;6.32;;;2.75;;
78027;SDS011;67235;45.638;11.714;2023-08-06T00:31:41;8.25;;;3.15;;
78027;SDS011;67235;45.638;11.714;2023-08-06T00:34:41;5.68;;;2.90;;
78027;SDS011;67235;45.638;11.714;2023-08-06T00:37:19;10.75;;;3.08;;
78027;SDS011;67235;45.638;11.714;2023-08-06T00:39:59;9.63;;;2.95;;
78027;SDS011;67235;45.638;11.714;2023-08-06T00:43:10;6.82;;;2.80;;
78027;SDS011;67235;45.638;11.714;2023-08-06T00:46:00;7.00;;;2.88;;
78027;SDS011;67235;45.638;11.714;2023-08-06T00:48:57;5.20;;;2.80;;
78027;SDS011;67235;45.638;11.714;2023-08-06T00:51:35;7.05;;;2.83;;
78027;SDS011;67235;45.638;11.714;2023-08-06T00:54:03;5.18;;;2.67;;
78027;SDS011;67235;45.638;11.714;2023-08-06T00:56:46;5.10;;;2.70;;
78027;SDS011;67235;45.638;11.714;2023-08-06T00:59:22;6.20;;;2.78;;
78027;SDS011;67235;45.638;11.714;2023-08-06T01:19:05;7.90;;;5.05;;
78027;SDS011;67235;45.638;11.714;2023-08-06T01:22:16;5.72;;;3.00;;
78027;SDS011;67235;45.638;11.714;2023-08-06T01:24:46;8.02;;;3.20;;
78027;SDS011;67235;45.638;11.714;2023-08-06T01:30:49;8.80;;;3.28;;
78027;SDS011;67235;45.638;11.714;2023-08-06T01:33:34;5.90;;;3.15;;
78027;SDS011;67235;45.638;11.714;2023-08-06T01:36:30;8.23;;;3.85;;
78027;SDS011;67235;45.638;11.714;2023-08-06T01:39:33;7.70;;;3.30;;
78027;SDS011;67235;45.638;11.714;2023-08-06T01:42:07;9.05;;;3.10;;
78027;SDS011;67235;45.638;11.714;2023-08-06T01:44:34;7.45;;;3.35;;
78027;SDS011;67235;45.638;11.714;2023-08-06T01:47:12;11.20;;;3.60;;
78027;SDS011;67235;45.638;11.714;2023-08-06T01:49:46;8.90;;;3.05;;
78027;SDS011;67235;45.638;11.714;2023-08-06T01:52:17;10.57;;;2.90;;
78027;SDS011;67235;45.638;11.714;2023-08-06T01:54:55;6.15;;;2.75;;
78027;SDS011;67235;45.638;11.714;2023-08-06T01:57:34;6.47;;;2.80;;
78027;SDS011;67235;45.638;11.714;2023-08-06T02:00:18;8.57;;;3.00;;
78027;SDS011;67235;45.638;11.714;2023-08-06T02:02:47;6.53;;;2.80;;
78027;SDS011;67235;45.638;11.714;2023-08-06T02:05:23;8.80;;;2.88;;
78027;SDS011;67235;45.638;11.714;2023-08-06T02:08:23;7.72;;;2.92;;
78027;SDS011;67235;45.638;11.714;2023-08-06T02:11:25;8.13;;;3.10;;
78027;SDS011;67235;45.638;11.714;2023-08-06T02:14:07;7.63;;;3.00;;
78027;SDS011;67235;45.638;11.714;2023-08-06T02:16:52;6.10;;;3.38;;
78027;SDS011;67235;45.638;11.714;2023-08-06T02:19:19;7.80;;;3.47;;
78027;SDS011;67235;45.638;11.714;2023-08-06T02:21:52;6.50;;;3.20;;
78027;SDS011;67235;45.638;11.714;2023-08-06T02:24:30;6.60;;;3.50;;
78027;SDS011;67235;45.638;11.714;2023-08-06T02:27:07;10.65;;;3.55;;
78027;SDS011;67235;45.638;11.714;2023-08-06T02:30:01;6.75;;;3.67;;
78027;SDS011;67235;45.638;11.714;2023-08-06T02:32:43;9.68;;;3.70;;
78027;SDS011;67235;45.638;11.714;2023-08-06T02:35:30;5.97;;;3.45;;
78027;SDS011;67235;45.638;11.714;2023-08-06T02:38:02;6.00;;;3.22;;
78027;SDS011;67235;45.638;11.714;2023-08-06T02:40:57;6.32;;;3.33;;
78027;SDS011;67235;45.638;11.714;2023-08-06T02:43:49;7.53;;;3.13;;
78027;SDS011;67235;45.638;11.714;2023-08-06T02:46:24;7.80;;;3.60;;
78027;SDS011;67235;45.638;11.714;2023-08-06T02:48:56;7.38;;;3.70;;
78027;SDS011;67235;45.638;11.714;2023-08-06T02:51:38;5.88;;;3.13;;
78027;SDS011;67235;45.638;11.714;2023-08-06T02:54:14;8.25;;;3.65;;
78027;SDS011;67235;45.638;11.714;2023-08-06T02:57:04;8.82;;;3.67;;
78027;SDS011;67235;45.638;11.714;2023-08-06T02:59:48;8.25;;;3.70;;
78027;SDS011;67235;45.638;11.714;2023-08-06T03:02:19;5.90;;;3.13;;
78027;SDS011;67235;45.638;11.714;2023-08-06T03:07:40;7.05;;;3.17;;
78027;SDS011;67235;45.638;11.714;2023-08-06T03:10:06;6.72;;;3.10;;
78027;SDS011;67235;45.638;11.714;2023-08-06T03:12:37;6.13;;;3.28;;
78027;SDS011;67235;45.638;11.714;2023-08-06T03:15:25;9.77;;;3.22;;
78027;SDS011;67235;45.638;11.714;2023-08-06T03:17:55;7.15;;;3.25;;
78027;SDS011;67235;45.638;11.714;2023-08-06T03:20:25;5.90;;;2.90;;
78027;SDS011;67235;45.638;11.714;2023-08-06T03:23:26;7.10;;;2.10;;
78027;SDS011;67235;45.638;11.714;2023-08-06T03:26:16;5.35;;;1.90;;
78027;SDS011;67235;45.638;11.714;2023-08-06T03:29:08;4.53;;;1.63;;
78027;SDS011;67235;45.638;11.714;2023-08-06T03:31:53;5.82;;;2.25;;
78027;SDS011;67235;45.638;11.714;2023-08-06T03:34:22;5.93;;;1.95;;
78027;SDS011;67235;45.638;11.714;2023-08-06T03:36:50;5.93;;;2.00;;
78027;SDS011;67235;45.638;11.714;2023-08-06T03:39:33;7.75;;;1.92;;
78027;SDS011;67235;45.638;11.714;2023-08-06T03:42:06;5.35;;;2.45;;
78027;SDS011;67235;45.638;11.714;2023-08-06T03:44:43;5.20;;;2.00;;
78027;SDS011;67235;45.638;11.714;2023-08-06T03:47:20;5.28;;;2.20;;
78027;SDS011;67235;45.638;11.714;2023-08-06T03:49:53;8.43;;;2.30;;
78027;SDS011;67235;45.638;11.714;2023-08-06T03:52:31;6.43;;;2.13;;
78027;SDS011;67235;45.638;11.714;2023-08-06T03:54:59;4.60;;;1.90;;
78027;SDS011;67235;45.638;11.714;2023-08-06T03:57:30;5.15;;;1.48;;
78027;SDS011;67235;45.638;11.714;2023-08-06T04:00:24;4.15;;;1.70;;
78027;SDS011;67235;45.638;11.714;2023-08-06T04:03:05;4.35;;;1.30;;
78027;SDS011;67235;45.638;11.714;2023-08-06T04:05:47;6.60;;;1.60;;
78027;SDS011;67235;45.638;11.714;2023-08-06T04:23:57;5.55;;;1.40;;
78027;SDS011;67235;45.638;11.714;2023-08-06T04:26:43;4.68;;;1.33;;
78027;SDS011;67235;45.638;11.714;2023-08-06T04:29:14;4.45;;;1.50;;
78027;SDS011;67235;45.638;11.714;2023-08-06T04:31:52;4.43;;;1.75;;
78027;SDS011;67235;45.638;11.714;2023-08-06T04:35:10;4.95;;;1.40;;
78027;SDS011;67235;45.638;11.714;2023-08-06T04:38:10;4.05;;;1.60;;
78027;SDS011;67235;45.638;11.714;2023-08-06T04:40:52;4.70;;;1.23;;
78027;SDS011;67235;45.638;11.714;2023-08-06T04:43:25;3.92;;;1.25;;
78027;SDS011;67235;45.638;11.714;2023-08-06T04:45:54;4.43;;;1.20;;
78027;SDS011;67235;45.638;11.714;2023-08-06T04:48:28;5.53;;;1.20;;
78027;SDS011;67235;45.638;11.714;2023-08-06T04:51:06;4.05;;;1.00;;
78027;SDS011;67235;45.638;11.714;2023-08-06T04:54:01;4.20;;;1.10;;
78027;SDS011;67235;45.638;11.714;2023-08-06T04:56:41;4.53;;;1.30;;
78027;SDS011;67235;45.638;11.714;2023-08-06T04:59:11;3.65;;;1.10;;
78027;SDS011;67235;45.638;11.714;2023-08-06T05:01:42;5.90;;;1.17;;
78027;SDS011;67235;45.638;11.714;2023-08-06T05:04:12;3.95;;;0.90;;
78027;SDS011;67235;45.638;11.714;2023-08-06T05:07:05;3.50;;;0.70;;
78027;SDS011;67235;45.638;11.714;2023-08-06T05:09:43;3.33;;;0.80;;
78027;SDS011;67235;45.638;11.714;2023-08-06T05:12:16;3.25;;;0.82;;
78027;SDS011;67235;45.638;11.714;2023-08-06T05:15:35;2.67;;;0.63;;
78027;SDS011;67235;45.638;11.714;2023-08-06T05:57:11;3.25;;;0.70;;
78027;SDS011;67235;45.638;11.714;2023-08-06T06:13:51;3.87;;;1.20;;
78027;SDS011;67235;45.638;11.714;2023-08-06T06:21:38;4.38;;;1.00;;
78027;SDS011;67235;45.638;11.714;2023-08-06T06:24:16;5.10;;;1.10;;
78027;SDS011;67235;45.638;11.714;2023-08-06T06:29:28;2.90;;;0.90;;
78027;SDS011;67235;45.638;11.714;2023-08-06T06:35:03;4.45;;;1.00;;
78027;SDS011;67235;45.638;11.714;2023-08-06T06:53:42;3.20;;;0.80;;
78027;SDS011;67235;45.638;11.714;2023-08-06T07:12:40;5.78;;;1.30;;
78027;SDS011;67235;45.638;11.714;2023-08-06T07:15:38;4.97;;;1.75;;
78027;SDS011;67235;45.638;11.714;2023-08-06T07:18:52;4.00;;;1.40;;
78027;SDS011;67235;45.638;11.714;2023-08-06T07:21:36;4.23;;;1.20;;
78027;SDS011;67235;45.638;11.714;2023-08-06T07:24:07;3.83;;;1.20;;
78027;SDS011;67235;45.638;11.714;2023-08-06T07:26:45;3.40;;;1.00;;
78027;SDS011;67235;45.638;11.714;2023-08-06T07:29:20;4.95;;;1.27;;
78027;SDS011;67235;45.638;11.714;2023-08-06T07:32:15;4.15;;;1.38;;
78027;SDS011;67235;45.638;11.714;2023-08-06T07:35:10;3.73;;;1.30;;
78027;SDS011;67235;45.638;11.714;2023-08-06T07:38:03;4.15;;;1.13;;
78027;SDS011;67235;45.638;11.714;2023-08-06T07:40:35;4.70;;;1.50;;
78027;SDS011;67235;45.638;11.714;2023-08-06T07:43:04;4.47;;;1.45;;
78027;SDS011;67235;45.638;11.714;2023-08-06T07:45:37;6.40;;;1.48;;
78027;SDS011;67235;45.638;11.714;2023-08-06T07:48:08;3.60;;;1.50;;
78027;SDS011;67235;45.638;11.714;2023-08-06T07:50:35;3.58;;;1.30;;
78027;SDS011;67235;45.638;11.714;2023-08-06T07:53:01;4.55;;;1.25;;
78027;SDS011;67235;45.638;11.714;2023-08-06T07:55:35;3.90;;;1.77;;
78027;SDS011;67235;45.638;11.714;2023-08-06T07:58:07;4.75;;;1.70;;
78027;SDS011;67235;45.638;11.714;2023-08-06T08:00:40;3.97;;;1.20;;
78027;SDS011;67235;45.638;11.714;2023-08-06T08:03:46;3.90;;;1.38;;
78027;SDS011;67235;45.638;11.714;2023-08-06T08:06:25;3.47;;;1.13;;
78027;SDS011;67235;45.638;11.714;2023-08-06T08:09:27;4.32;;;1.23;;
78027;SDS011;67235;45.638;11.714;2023-08-06T08:11:53;3.83;;;1.20;;
78027;SDS011;67235;45.638;11.714;2023-08-06T08:14:26;3.50;;;1.40;;
78027;SDS011;67235;45.638;11.714;2023-08-06T08:17:08;4.90;;;1.35;;
78027;SDS011;67235;45.638;11.714;2023-08-06T08:19:42;3.88;;;1.50;;
78027;SDS011;67235;45.638;11.714;2023-08-06T08:22:19;4.20;;;1.30;;
78027;SDS011;67235;45.638;11.714;2023-08-06T08:24:54;3.90;;;1.10;;
78027;SDS011;67235;45.638;11.714;2023-08-06T08:27:28;3.53;;;1.13;;
78027;SDS011;67235;45.638;11.714;2023-08-06T08:29:58;5.63;;;1.48;;
78027;SDS011;67235;45.638;11.714;2023-08-06T08:32:25;4.55;;;1.50;;
78027;SDS011;67235;45.638;11.714;2023-08-06T08:34:52;4.05;;;1.40;;
78027;SDS011;67235;45.638;11.714;2023-08-06T08:37:32;3.80;;;1.40;;
78027;SDS011;67235;45.638;11.714;2023-08-06T08:40:07;6.15;;;1.70;;
78027;SDS011;67235;45.638;11.714;2023-08-06T08:42:56;4.15;;;1.35;;
78027;SDS011;67235;45.638;11.714;2023-08-06T08:45:34;4.05;;;1.13;;
78027;SDS011;67235;45.638;11.714;2023-08-06T08:48:36;3.70;;;1.40;;
78027;SDS011;67235;45.638;11.714;2023-08-06T08:51:15;4.27;;;1.50;;
78027;SDS011;67235;45.638;11.714;2023-08-06T08:53:42;4.28;;;1.50;;
78027;SDS011;67235;45.638;11.714;2023-08-06T08:56:19;4.38;;;1.60;;
78027;SDS011;67235;45.638;11.714;2023-08-06T08:58:52;5.72;;;1.77;;
78027;SDS011;67235;45.638;11.714;2023-08-06T09:01:23;4.07;;;1.60;;
78027;SDS011;67235;45.638;11.714;2023-08-06T09:03:56;4.27;;;1.50;;
78027;SDS011;67235;45.638;11.714;2023-08-06T09:06:30;4.60;;;1.20;;
78027;SDS011;67235;45.638;11.714;2023-08-06T09:09:05;4.53;;;1.50;;
78027;SDS011;67235;45.638;11.714;2023-08-06T09:11:36;4.10;;;1.75;;
78027;SDS011;67235;45.638;11.714;2023-08-06T09:14:09;4.35;;;1.80;;
78027;SDS011;67235;45.638;11.714;2023-08-06T09:16:38;5.43;;;1.80;;
78027;SDS011;67235;45.638;11.714;2023-08-06T09:19:12;4.00;;;1.80;;
78027;SDS011;67235;45.638;11.714;2023-08-06T09:21:42;4.53;;;2.05;;
78027;SDS011;67235;45.638;11.714;2023-08-06T09:24:11;4.22;;;1.70;;
78027;SDS011;67235;45.638;11.714;2023-08-06T09:26:38;3.67;;;1.30;;
78027;SDS011;67235;45.638;11.714;2023-08-06T09:29:06;3.73;;;1.43;;
78027;SDS011;67235;45.638;11.714;2023-08-06T09:31:40;4.35;;;1.40;;
78027;SDS011;67235;45.638;11.714;2023-08-06T09:34:14;4.78;;;1.30;;
78027;SDS011;67235;45.638;11.714;2023-08-06T09:36:52;4.30;;;1.25;;
78027;SDS011;67235;45.638;11.714;2023-08-06T09:39:26;3.75;;;1.40;;
78027;SDS011;67235;45.638;11.714;2023-08-06T09:42:00;3.83;;;1.53;;
78027;SDS011;67235;45.638;11.714;2023-08-06T09:44:32;3.85;;;1.50;;
78027;SDS011;67235;45.638;11.714;2023-08-06T09:47:00;4.97;;;2.00;;
78027;SDS011;67235;45.638;11.714;2023-08-06T09:52:00;4.28;;;1.48;;
78027;SDS011;67235;45.638;11.714;2023-08-06T09:54:29;3.47;;;1.10;;
78027;SDS011;67235;45.638;11.714;2023-08-06T09:57:09;4.00;;;1.33;;
78027;SDS011;67235;45.638;11.714;2023-08-06T09:59:42;4.00;;;1.50;;
78027;SDS011;67235;45.638;11.714;2023-08-06T10:02:15;4.60;;;1.67;;
78027;SDS011;67235;45.638;11.714;2023-08-06T10:04:50;3.60;;;1.42;;
78027;SDS011;67235;45.638;11.714;2023-08-06T10:07:29;4.43;;;1.30;;
78027;SDS011;67235;45.638;11.714;2023-08-06T10:09:58;4.50;;;1.65;;
78027;SDS011;67235;45.638;11.714;2023-08-06T10:12:52;3.70;;;1.50;;
78027;SDS011;67235;45.638;11.714;2023-08-06T10:15:26;5.13;;;1.60;;
78027;SDS011;67235;45.638;11.714;2023-08-06T10:18:07;5.38;;;1.50;;
78027;SDS011;67235;45.638;11.714;2023-08-06T10:20:46;3.33;;;1.20;;
78027;SDS011;67235;45.638;11.714;2023-08-06T10:23:12;3.55;;;1.30;;
78027;SDS011;67235;45.638;11.714;2023-08-06T10:25:46;4.28;;;1.40;;
78027;SDS011;67235;45.638;11.714;2023-08-06T10:28:24;3.70;;;1.25;;
78027;SDS011;67235;45.638;11.714;2023-08-06T10:31:10;4.28;;;1.60;;
78027;SDS011;67235;45.638;11.714;2023-08-06T10:33:47;4.97;;;1.37;;
78027;SDS011;67235;45.638;11.714;2023-08-06T10:36:16;4.13;;;1.20;;
78027;SDS011;67235;45.638;11.714;2023-08-06T10:38:52;4.10;;;1.20;;
78027;SDS011;67235;45.638;11.714;2023-08-06T10:44:17;4.15;;;1.13;;
78027;SDS011;67235;45.638;11.714;2023-08-06T10:46:52;3.70;;;1.20;;
78027;SDS011;67235;45.638;11.714;2023-08-06T10:50:01;3.03;;;1.00;;
78027;SDS011;67235;45.638;11.714;2023-08-06T10:52:31;3.53;;;1.20;;
78027;SDS011;67235;45.638;11.714;2023-08-06T10:55:05;3.28;;;1.00;;
78027;SDS011;67235;45.638;11.714;2023-08-06T10:58:20;3.20;;;1.08;;
78027;SDS011;67235;45.638;11.714;2023-08-06T11:01:30;3.37;;;1.30;;
78027;SDS011;67235;45.638;11.714;2023-08-06T11:04:02;4.63;;;1.70;;
78027;SDS011;67235;45.638;11.714;2023-08-06T11:06:55;4.93;;;2.00;;
78027;SDS011;67235;45.638;11.714;2023-08-06T11:12:53;5.32;;;2.00;;
78027;SDS011;67235;45.638;11.714;2023-08-06T11:15:22;5.00;;;1.77;;
78027;SDS011;67235;45.638;11.714;2023-08-06T11:21:49;4.70;;;1.77;;
78027;SDS011;67235;45.638;11.714;2023-08-06T11:24:23;4.03;;;1.40;;
78027;SDS011;67235;45.638;11.714;2023-08-06T11:26:51;4.07;;;1.80;;
78027;SDS011;67235;45.638;11.714;2023-08-06T11:29:26;4.30;;;1.50;;
78027;SDS011;67235;45.638;11.714;2023-08-06T11:35:09;3.95;;;1.35;;
78027;SDS011;67235;45.638;11.714;2023-08-06T11:37:45;4.93;;;1.50;;
78027;SDS011;67235;45.638;11.714;2023-08-06T11:41:06;4.78;;;1.42;;
78027;SDS011;67235;45.638;11.714;2023-08-06T11:43:35;3.20;;;1.10;;
78027;SDS011;67235;45.638;11.714;2023-08-06T11:46:12;3.47;;;1.20;;
78027;SDS011;67235;45.638;11.714;2023-08-06T11:48:55;3.17;;;1.10;;
78027;SDS011;67235;45.638;11.714;2023-08-06T11:51:36;4.20;;;0.82;;
78027;SDS011;67235;45.638;11.714;2023-08-06T11:54:35;3.50;;;0.93;;
78027;SDS011;67235;45.638;11.714;2023-08-06T11:57:10;3.40;;;1.17;;
78027;SDS011;67235;45.638;11.714;2023-08-06T11:59:47;2.83;;;0.98;;
78027;SDS011;67235;45.638;11.714;2023-08-06T12:02:16;3.22;;;1.10;;
78027;SDS011;67235;45.638;11.714;2023-08-06T12:08:02;3.38;;;0.95;;
78027;SDS011;67235;45.638;11.714;2023-08-06T12:10:43;3.50;;;1.10;;
78027;SDS011;67235;45.638;11.714;2023-08-06T12:13:19;3.58;;;1.10;;
78027;SDS011;67235;45.638;11.714;2023-08-06T12:15:55;5.07;;;1.33;;
78027;SDS011;67235;45.638;11.714;2023-08-06T12:18:58;5.38;;;1.20;;
78027;SDS011;67235;45.638;11.714;2023-08-06T12:21:34;3.63;;;1.10;;
78027;SDS011;67235;45.638;11.714;2023-08-06T12:24:20;3.63;;;1.20;;
78027;SDS011;67235;45.638;11.714;2023-08-06T12:27:03;3.90;;;1.25;;
78027;SDS011;67235;45.638;11.714;2023-08-06T12:33:05;4.25;;;1.50;;
78027;SDS011;67235;45.638;11.714;2023-08-06T12:35:57;4.15;;;1.25;;
78027;SDS011;67235;45.638;11.714;2023-08-06T12:41:02;3.55;;;1.30;;
78027;SDS011;67235;45.638;11.714;2023-08-06T12:44:33;3.42;;;1.50;;
78027;SDS011;67235;45.638;11.714;2023-08-06T12:54:47;3.60;;;1.60;;
78027;SDS011;67235;45.638;11.714;2023-08-06T12:57:24;5.50;;;1.60;;
78027;SDS011;67235;45.638;11.714;2023-08-06T13:00:06;4.18;;;1.40;;
78027;SDS011;67235;45.638;11.714;2023-08-06T13:07:58;4.22;;;1.40;;
78027;SDS011;67235;45.638;11.714;2023-08-06T13:10:36;4.43;;;1.58;;
78027;SDS011;67235;45.638;11.714;2023-08-06T13:13:24;4.20;;;1.73;;
78027;SDS011;67235;45.638;11.714;2023-08-06T13:21:06;4.20;;;1.60;;
78027;SDS011;67235;45.638;11.714;2023-08-06T13:26:58;4.00;;;1.70;;
78027;SDS011;67235;45.638;11.714;2023-08-06T13:29:53;5.10;;;2.05;;
78027;SDS011;67235;45.638;11.714;2023-08-06T13:35:45;4.15;;;1.95;;
78027;SDS011;67235;45.638;11.714;2023-08-06T13:49:57;4.47;;;1.95;;
78027;SDS011;67235;45.638;11.714;2023-08-06T13:52:40;5.28;;;2.30;;
78027;SDS011;67235;45.638;11.714;2023-08-06T14:04:31;4.97;;;1.90;;
78027;SDS011;67235;45.638;11.714;2023-08-06T14:32:15;4.43;;;1.50;;
78027;SDS011;67235;45.638;11.714;2023-08-06T14:37:48;3.95;;;1.33;;
78027;SDS011;67235;45.638;11.714;2023-08-06T14:40:31;4.75;;;1.20;;
78027;SDS011;67235;45.638;11.714;2023-08-06T14:48:25;4.90;;;1.40;;
78027;SDS011;67235;45.638;11.714;2023-08-06T14:51:18;3.30;;;1.10;;
78027;SDS011;67235;45.638;11.714;2023-08-06T14:54:18;3.25;;;1.10;;
78027;SDS011;67235;45.638;11.714;2023-08-06T14:57:27;3.20;;;1.00;;
78027;SDS011;67235;45.638;11.714;2023-08-06T15:00:04;3.25;;;1.05;;
78027;SDS011;67235;45.638;11.714;2023-08-06T15:02:42;3.53;;;1.20;;
78027;SDS011;67235;45.638;11.714;2023-08-06T15:06:07;4.00;;;1.13;;
78027;SDS011;67235;45.638;11.714;2023-08-06T15:08:58;3.28;;;1.10;;
78027;SDS011;67235;45.638;11.714;2023-08-06T15:11:27;3.87;;;1.30;;
78027;SDS011;67235;45.638;11.714;2023-08-06T15:16:20;3.60;;;1.50;;
78027;SDS011;67235;45.638;11.714;2023-08-06T15:18:46;3.40;;;1.30;;
78027;SDS011;67235;45.638;11.714;2023-08-06T15:21:39;3.17;;;1.10;;
78027;SDS011;67235;45.638;11.714;2023-08-06T15:25:07;3.50;;;1.40;;
78027;SDS011;67235;45.638;11.714;2023-08-06T15:30:45;3.80;;;1.50;;
78027;SDS011;67235;45.638;11.714;2023-08-06T15:36:46;4.53;;;1.50;;
78027;SDS011;67235;45.638;11.714;2023-08-06T15:39:12;3.83;;;1.45;;
78027;SDS011;67235;45.638;11.714;2023-08-06T15:41:38;3.33;;;1.30;;
78027;SDS011;67235;45.638;11.714;2023-08-06T15:48:03;5.35;;;1.30;;
78027;SDS011;67235;45.638;11.714;2023-08-06T15:50:29;4.05;;;1.33;;
78027;SDS011;67235;45.638;11.714;2023-08-06T16:45:28;4.30;;;0.70;;
78027;SDS011;67235;45.638;11.714;2023-08-06T16:50:31;2.07;;;0.30;;
78027;SDS011;67235;45.638;11.714;2023-08-06T16:53:23;2.58;;;0.30;;
78027;SDS011;67235;45.638;11.714;2023-08-06T16:55:52;2.53;;;0.40;;
78027;SDS011;67235;45.638;11.714;2023-08-06T16:58:21;2.78;;;0.30;;
78027;SDS011;67235;45.638;11.714;2023-08-06T17:00:50;1.98;;;0.35;;
78027;SDS011;67235;45.638;11.714;2023-08-06T17:03:30;1.73;;;0.30;;
78027;SDS011;67235;45.638;11.714;2023-08-06T17:06:06;1.45;;;0.20;;
78027;SDS011;67235;45.638;11.714;2023-08-06T17:23:08;1.88;;;0.30;;
78027;SDS011;67235;45.638;11.714;2023-08-06T19:48:56;2.60;;;0.43;;
78027;SDS011;67235;45.638;11.714;2023-08-06T19:51:33;5.22;;;0.55;;
78027;SDS011;67235;45.638;11.714;2023-08-06T19:54:22;3.67;;;0.45;;
78027;SDS011;67235;45.638;11.714;2023-08-06T19:59:56;4.25;;;0.40;;
78027;SDS011;67235;45.638;11.714;2023-08-06T20:02:41;4.57;;;0.60;;
